Terminal Aerodrome Forecast
Issued by NWS

Current Version | Previous Version | Graphics & Text | Print | Product List | Glossary On
Versions: 1 2 3 4 5 6 7 8 9 10 11 12 13 14 15 16 17 18 19 20
000
FTUS41 KILN 021700
TAFLUK
TAF
KLUK 021739Z 0218/0318 VRB03KT P6SM SCT250
     FM030300 09007KT P6SM FEW020 OVC200
      TEMPO 0312/0314 11008KT -FZRA OVC025
     FM031400 14008KT 5SM -FZRA OVC020
      TEMPO 0315/0317 3SM -RA SCT008 OVC018=

USA.gov is the U.S. government's official web portal to all federal, state and local government web resources and services.